createdAt,value
2023-03-21T00:00:20.537Z,19.80
2023-03-21T00:02:51.990Z,19.50
2023-03-21T00:05:21.724Z,19.40
2023-03-21T00:07:51.069Z,19.10
2023-03-21T00:10:29.769Z,18.90
2023-03-21T01:30:24.850Z,19.30
2023-03-21T01:32:53.315Z,19.20
2023-03-21T01:35:23.142Z,19.20
2023-03-21T01:37:51.844Z,19.30
2023-03-21T01:40:23.498Z,19.60
2023-03-21T01:42:54.898Z,19.70
2023-03-21T01:46:21.069Z,19.60
2023-03-21T01:49:08.445Z,19.70
2023-03-21T01:51:41.921Z,19.70
2023-03-21T01:54:16.329Z,19.80
2023-03-21T01:56:47.030Z,20.00
2023-03-21T01:59:22.624Z,20.30
2023-03-21T02:02:09.912Z,20.20
2023-03-21T02:04:50.881Z,20.40
2023-03-21T02:07:28.810Z,20.60
2023-03-21T02:10:08.120Z,21.00
2023-03-21T02:12:36.421Z,20.80
2023-03-21T02:15:07.472Z,20.80
2023-03-21T02:18:01.908Z,20.70
2023-03-21T02:21:09.401Z,20.80
2023-03-21T02:24:26.428Z,20.40
2023-03-21T02:27:09.214Z,20.00
2023-03-21T02:30:30.430Z,19.60
2023-03-21T02:33:37.652Z,19.80
2023-03-21T02:36:26.455Z,19.80
2023-03-21T02:39:04.093Z,19.90
2023-03-21T02:41:43.045Z,20.00
2023-03-21T02:44:20.767Z,20.00
2023-03-21T02:47:03.185Z,20.50
2023-03-21T02:49:40.183Z,20.40
2023-03-21T02:52:18.749Z,20.70
2023-03-21T02:54:58.188Z,20.80
2023-03-21T02:57:42.233Z,20.10
2023-03-21T03:00:18.036Z,20.10
2023-03-21T03:02:54.647Z,20.10
2023-03-21T03:05:30.907Z,19.80
2023-03-21T03:08:26.568Z,20.00
2023-03-21T03:11:17.153Z,20.00
2023-03-21T03:14:21.146Z,20.00
2023-03-21T03:17:05.139Z,20.00
2023-03-21T03:19:49.390Z,20.10
2023-03-21T03:22:24.619Z,20.10
2023-03-21T03:25:04.755Z,19.90
2023-03-21T03:27:45.449Z,19.60
2023-03-21T03:30:15.219Z,20.00
2023-03-21T03:32:49.270Z,20.00
2023-03-21T03:35:19.683Z,20.20
2023-03-21T03:37:51.790Z,20.10
2023-03-21T03:40:24.992Z,19.90
2023-03-21T03:43:10.047Z,20.00
2023-03-21T03:45:47.326Z,20.10
2023-03-21T03:48:25.192Z,20.00
2023-03-21T03:51:01.367Z,19.70
2023-03-21T03:53:46.032Z,19.60
2023-03-21T03:56:15.308Z,19.70
2023-03-21T03:58:46.256Z,19.70
2023-03-21T04:01:18.687Z,19.70
2023-03-21T04:03:52.999Z,19.90
2023-03-21T04:06:29.071Z,20.00
2023-03-21T04:08:58.931Z,20.20
2023-03-21T04:11:31.892Z,20.70
2023-03-21T04:14:01.469Z,20.90
2023-03-21T04:16:32.821Z,21.00
2023-03-21T04:19:02.188Z,21.10
2023-03-21T04:21:31.576Z,20.70
2023-03-21T04:24:02.129Z,20.80
2023-03-21T04:26:33.329Z,20.60
2023-03-21T04:29:21.573Z,20.80
2023-03-21T04:32:17.703Z,20.40
2023-03-21T04:34:54.061Z,20.40
2023-03-21T04:37:25.962Z,19.90
2023-03-21T04:39:55.560Z,20.50
2023-03-21T04:42:24.012Z,20.20
2023-03-21T04:44:53.676Z,20.60
2023-03-21T04:47:21.908Z,20.40
2023-03-21T04:49:50.344Z,20.50
2023-03-21T04:52:18.736Z,20.20
2023-03-21T04:54:47.573Z,20.20
2023-03-21T04:57:15.882Z,20.20
2023-03-21T04:59:44.947Z,20.30
2023-03-21T05:02:15.381Z,20.40
2023-03-21T05:04:44.726Z,20.40
2023-03-21T05:07:13.099Z,20.40
2023-03-21T05:09:41.324Z,20.60
2023-03-21T05:12:09.628Z,20.40
2023-03-21T05:14:38.712Z,20.70
2023-03-21T05:17:07.431Z,20.60
2023-03-21T05:19:40.428Z,21.10
2023-03-21T05:22:11.040Z,20.70
2023-03-21T05:24:41.834Z,20.80
2023-03-21T05:27:34.718Z,20.50
2023-03-21T05:30:13.272Z,20.70
2023-03-21T05:32:42.237Z,20.40
2023-03-21T05:35:14.662Z,20.30
2023-03-21T05:37:43.260Z,20.20
2023-03-21T05:40:15.290Z,20.30
2023-03-21T05:42:47.064Z,20.10
2023-03-21T05:45:22.869Z,20.10
2023-03-21T05:47:52.584Z,20.00
2023-03-21T05:50:26.154Z,20.50
2023-03-21T05:53:09.128Z,20.20
2023-03-21T05:55:38.229Z,20.50
2023-03-21T05:58:10.424Z,21.10
2023-03-21T06:00:40.148Z,21.10
2023-03-21T06:03:23.404Z,20.80
2023-03-21T06:06:18.800Z,20.90
2023-03-21T06:08:57.956Z,20.70
2023-03-21T06:11:29.754Z,20.30
2023-03-21T06:14:19.692Z,20.40
2023-03-21T06:16:59.729Z,20.70
2023-03-21T06:19:28.363Z,20.40
2023-03-21T06:22:06.013Z,20.70
2023-03-21T06:24:36.558Z,21.00
2023-03-21T06:27:05.276Z,21.30
2023-03-21T06:29:46.728Z,20.50
2023-03-21T06:32:16.136Z,19.90
2023-03-21T06:34:45.616Z,20.10
2023-03-21T06:37:18.909Z,20.20
2023-03-21T06:39:47.774Z,19.90
2023-03-21T06:42:16.305Z,20.00
2023-03-21T06:44:44.903Z,19.90
2023-03-21T06:47:16.256Z,20.30
2023-03-21T06:49:46.648Z,20.20
2023-03-21T06:52:14.993Z,19.80
2023-03-21T06:54:44.982Z,19.50
2023-03-21T06:57:19.915Z,19.20
2023-03-21T06:59:49.500Z,19.30
2023-03-21T07:02:22.442Z,19.40
2023-03-21T07:05:11.154Z,19.60
2023-03-21T07:07:39.648Z,19.40
2023-03-21T07:10:11.991Z,19.10
2023-03-21T07:12:56.322Z,19.00
2023-03-21T07:15:54.676Z,19.20
2023-03-21T07:18:23.326Z,19.20
2023-03-21T07:20:52.462Z,19.00
2023-03-21T07:23:23.620Z,19.30
2023-03-21T07:25:54.081Z,19.70
2023-03-21T07:28:23.630Z,19.60
2023-03-21T07:31:02.528Z,19.50
2023-03-21T07:33:30.821Z,20.20
2023-03-21T07:36:03.205Z,19.50
2023-03-21T07:38:31.967Z,19.80
2023-03-21T07:41:02.097Z,20.50
2023-03-21T07:43:34.800Z,20.40
2023-03-21T07:46:04.440Z,20.50
2023-03-21T07:48:33.271Z,20.40
2023-03-21T07:51:02.703Z,19.60
2023-03-21T07:53:31.092Z,19.90
2023-03-21T07:55:59.316Z,20.00
2023-03-21T07:58:29.089Z,19.70
2023-03-21T08:00:57.514Z,20.10
2023-03-21T08:03:29.241Z,20.50
2023-03-21T08:05:57.445Z,20.60
2023-03-21T08:08:25.618Z,20.00
2023-03-21T08:10:54.017Z,19.90
2023-03-21T08:13:22.964Z,19.90
2023-03-21T08:15:52.581Z,19.80
2023-03-21T08:18:21.013Z,19.80
2023-03-21T08:20:53.102Z,19.50
2023-03-21T08:23:21.532Z,19.90
2023-03-21T08:25:53.006Z,20.30
2023-03-21T08:28:21.848Z,20.30
2023-03-21T08:30:50.567Z,20.00
2023-03-21T08:33:20.195Z,20.30
2023-03-21T08:35:48.546Z,20.10
2023-03-21T08:38:16.937Z,19.60
2023-03-21T08:40:45.134Z,19.60
2023-03-21T08:43:14.926Z,19.50
2023-03-21T08:45:43.292Z,19.30
2023-03-21T08:48:11.532Z,19.80
2023-03-21T08:50:41.191Z,19.30
2023-03-21T08:53:09.496Z,19.40
2023-03-21T08:55:37.992Z,19.10
2023-03-21T08:58:07.055Z,19.20
2023-03-21T09:00:36.994Z,19.10
2023-03-21T09:03:05.592Z,19.00
2023-03-21T09:05:34.010Z,19.10
2023-03-21T09:08:03.649Z,19.10
2023-03-21T09:10:32.147Z,19.20
2023-03-21T09:13:00.310Z,19.00
2023-03-21T09:15:29.830Z,19.10
2023-03-21T09:18:12.947Z,19.10
2023-03-21T09:20:42.878Z,19.00
2023-03-21T09:23:14.396Z,19.10
2023-03-21T09:25:43.374Z,18.90
2023-03-21T09:28:13.098Z,19.10
2023-03-21T09:30:41.566Z,19.10
2023-03-21T09:33:13.229Z,19.20
2023-03-21T09:35:42.708Z,19.20
2023-03-21T09:38:12.552Z,19.80
2023-03-21T09:40:58.048Z,20.10
2023-03-21T09:43:49.348Z,20.20
2023-03-21T09:46:24.589Z,20.70
2023-03-21T09:48:59.815Z,21.30
2023-03-21T09:51:33.019Z,21.10
2023-03-21T09:54:08.694Z,21.10
2023-03-21T09:56:40.656Z,20.70
2023-03-21T09:59:11.583Z,20.50
2023-03-21T10:01:45.506Z,20.30
2023-03-21T10:04:16.710Z,20.60
2023-03-21T10:06:46.602Z,20.50
2023-03-21T10:09:22.858Z,20.30
2023-03-21T10:11:54.344Z,20.70
2023-03-21T10:14:26.595Z,20.50
2023-03-21T10:16:59.305Z,20.40
2023-03-21T10:19:29.312Z,20.40
2023-03-21T10:22:01.724Z,20.10
2023-03-21T10:24:35.036Z,19.80
2023-03-21T10:27:04.880Z,19.90
2023-03-21T10:29:42.141Z,19.80
2023-03-21T10:32:12.564Z,19.80
2023-03-21T10:34:44.545Z,20.20
2023-03-21T10:37:13.926Z,20.30
2023-03-21T10:39:46.578Z,20.20
2023-03-21T10:42:21.402Z,20.30
2023-03-21T10:44:51.673Z,19.80
2023-03-21T10:47:22.796Z,19.60
2023-03-21T10:50:06.898Z,19.80
2023-03-21T10:52:38.243Z,20.30
2023-03-21T10:55:16.665Z,20.50
2023-03-21T10:57:46.014Z,20.60
2023-03-21T11:00:21.389Z,20.70
2023-03-21T11:02:51.309Z,20.30
2023-03-21T11:05:24.049Z,20.10
2023-03-21T11:08:03.778Z,20.70
2023-03-21T11:10:38.363Z,21.20
2023-03-21T11:13:09.445Z,21.10
2023-03-21T11:15:47.642Z,21.30
2023-03-21T11:18:20.335Z,21.70
2023-03-21T11:20:56.277Z,21.10
2023-03-21T11:23:29.717Z,20.50
2023-03-21T11:26:01.183Z,20.50
2023-03-21T11:28:37.952Z,20.70
2023-03-21T11:31:09.121Z,20.50
2023-03-21T11:33:40.583Z,20.80
2023-03-21T11:36:28.207Z,21.00
2023-03-21T11:39:03.736Z,21.30
2023-03-21T11:41:35.362Z,21.40
2023-03-21T11:44:04.947Z,21.00
2023-03-21T11:46:40.751Z,20.20
2023-03-21T11:49:11.673Z,19.70
2023-03-21T11:51:48.263Z,19.90
2023-03-21T11:54:22.871Z,20.20
2023-03-21T11:57:07.868Z,20.70
2023-03-21T11:59:46.815Z,20.70
2023-03-21T12:02:29.097Z,21.00
2023-03-21T12:05:04.298Z,21.50
2023-03-21T12:07:46.206Z,21.70
2023-03-21T12:10:31.556Z,21.30
2023-03-21T12:13:15.755Z,21.00
2023-03-21T12:15:55.379Z,20.30
2023-03-21T12:18:43.458Z,20.60
2023-03-21T12:21:20.843Z,20.90
2023-03-21T12:24:03.720Z,20.70
2023-03-21T12:26:35.828Z,21.00
2023-03-21T12:29:20.972Z,21.30
2023-03-21T12:32:06.451Z,21.60
2023-03-21T12:35:00.149Z,21.30
2023-03-21T12:37:36.950Z,20.70
2023-03-21T12:40:13.098Z,20.50
2023-03-21T12:43:03.220Z,20.40
2023-03-21T12:45:46.212Z,20.60
2023-03-21T12:48:23.561Z,20.60
2023-03-21T12:50:55.444Z,20.60
2023-03-21T12:53:35.566Z,21.20
2023-03-21T12:56:08.800Z,21.30
2023-03-21T12:58:47.011Z,21.50
2023-03-21T13:01:22.524Z,21.80
2023-03-21T13:03:58.989Z,21.90
2023-03-21T13:06:29.118Z,22.20
2023-03-21T13:09:01.770Z,22.40
2023-03-21T13:11:32.039Z,22.10
2023-03-21T13:14:06.178Z,21.90
2023-03-21T13:16:40.266Z,22.60
2023-03-21T13:19:19.334Z,22.40
2023-03-21T13:21:53.340Z,21.90
2023-03-21T13:24:28.079Z,21.70
2023-03-21T13:27:06.807Z,21.70
2023-03-21T13:29:45.952Z,21.20
2023-03-21T13:32:31.118Z,21.50
2023-03-21T13:35:01.469Z,21.00
2023-03-21T13:37:33.295Z,20.60
2023-03-21T13:40:09.386Z,21.50
2023-03-21T13:42:45.013Z,21.50
2023-03-21T13:45:24.321Z,21.20
2023-03-21T13:47:56.478Z,20.80
2023-03-21T13:50:30.767Z,21.10
2023-03-21T13:58:59.039Z,20.40
2023-03-21T14:01:34.172Z,20.70
2023-03-21T14:04:16.830Z,20.50
2023-03-21T14:06:56.256Z,20.90
2023-03-21T14:09:34.828Z,20.40
2023-03-21T14:16:32.258Z,21.00
2023-03-21T14:19:03.859Z,20.40
2023-03-21T14:21:35.708Z,20.20
2023-03-21T14:24:05.941Z,20.70
2023-03-21T14:26:41.126Z,20.60
2023-03-21T14:29:25.226Z,20.60
2023-03-21T14:32:06.788Z,21.30
2023-03-21T14:34:36.752Z,22.00
2023-03-21T14:37:12.209Z,22.10
2023-03-21T14:39:40.439Z,21.00
2023-03-21T14:42:15.087Z,21.60
2023-03-21T14:44:56.787Z,20.80
2023-03-21T14:47:27.380Z,21.40
2023-03-21T14:49:56.362Z,21.30
2023-03-21T14:52:28.521Z,21.60
2023-03-21T14:54:57.681Z,21.70
2023-03-21T14:57:29.465Z,22.00
2023-03-21T15:00:01.629Z,21.90
2023-03-21T15:02:35.655Z,22.50
2023-03-21T15:05:11.276Z,21.90
2023-03-21T15:07:40.941Z,21.60
2023-03-21T15:10:17.278Z,21.00
2023-03-21T15:12:52.325Z,21.30
2023-03-21T15:15:23.890Z,22.20
2023-03-21T15:17:58.202Z,21.70
2023-03-21T15:20:29.624Z,21.70
2023-03-21T15:23:04.440Z,21.60
2023-03-21T15:25:35.961Z,21.80
2023-03-21T15:28:06.271Z,21.40
2023-03-21T15:30:38.397Z,21.40
2023-03-21T15:33:10.301Z,21.90
2023-03-21T15:35:42.222Z,21.90
2023-03-21T15:38:25.205Z,22.00
2023-03-21T15:41:13.877Z,22.10
2023-03-21T15:43:42.305Z,21.80
2023-03-21T15:46:15.401Z,21.40
2023-03-21T15:48:44.506Z,21.00
2023-03-21T15:51:21.529Z,20.80
2023-03-21T15:53:54.396Z,21.10
2023-03-21T15:56:23.926Z,21.10
2023-03-21T15:58:54.108Z,20.80
2023-03-21T16:01:26.291Z,21.30
2023-03-21T16:03:58.401Z,21.40
2023-03-21T16:06:33.533Z,21.50
2023-03-21T16:09:15.047Z,21.30
2023-03-21T16:11:44.183Z,22.10
2023-03-21T16:14:12.438Z,22.60
2023-03-21T16:16:41.207Z,22.70
2023-03-21T16:19:09.360Z,22.70
2023-03-21T16:21:38.610Z,23.00
2023-03-21T16:24:10.431Z,23.00
2023-03-21T16:26:43.441Z,23.30
2023-03-21T16:29:14.796Z,23.30
2023-03-21T16:31:43.251Z,23.70
2023-03-21T16:34:12.550Z,23.90
2023-03-21T16:36:43.378Z,24.10
2023-03-21T16:39:21.398Z,24.30
2023-03-21T16:41:50.552Z,24.40
2023-03-21T16:44:19.098Z,24.60
2023-03-21T16:46:48.178Z,24.70
2023-03-21T16:49:21.423Z,24.70
2023-03-21T16:51:49.588Z,24.70
2023-03-21T16:54:22.862Z,24.30
2023-03-21T16:56:52.556Z,24.20
2023-03-21T16:59:20.825Z,24.40
2023-03-21T17:01:49.175Z,24.40
2023-03-21T17:04:18.266Z,24.30
2023-03-21T17:06:49.220Z,24.40
2023-03-21T17:09:21.019Z,24.40
2023-03-21T17:11:51.325Z,24.40
2023-03-21T17:14:21.452Z,24.40
2023-03-21T17:16:50.054Z,24.40
2023-03-21T17:19:19.625Z,24.40
2023-03-21T17:21:48.071Z,24.40
2023-03-21T17:24:16.791Z,24.40
2023-03-21T17:26:45.206Z,24.10
2023-03-21T17:29:16.153Z,24.10
2023-03-21T17:31:47.292Z,24.10
2023-03-21T17:34:17.703Z,24.30
2023-03-21T17:36:48.701Z,24.40
2023-03-21T17:39:22.591Z,24.40
2023-03-21T17:41:51.907Z,24.40
2023-03-21T17:44:22.051Z,24.40
2023-03-21T17:46:51.964Z,24.40
2023-03-21T17:49:21.139Z,24.40
2023-03-21T17:51:50.396Z,24.40
2023-03-21T17:54:18.685Z,24.40
2023-03-21T17:56:47.316Z,24.20
2023-03-21T17:59:16.392Z,24.10
2023-03-21T18:01:47.226Z,24.00
2023-03-21T18:04:15.580Z,24.00
2023-03-21T18:06:44.841Z,23.80
2023-03-21T18:09:13.552Z,23.80
2023-03-21T18:11:42.701Z,23.80
2023-03-21T18:14:17.241Z,23.90
2023-03-21T18:16:47.822Z,23.90
2023-03-21T18:19:16.098Z,24.00
2023-03-21T18:21:45.337Z,24.00
2023-03-21T18:24:14.310Z,23.80
2023-03-21T18:26:43.198Z,23.70
2023-03-21T18:32:08.929Z,24.00
2023-03-21T18:34:39.531Z,24.10
2023-03-21T18:37:08.643Z,24.10
2023-03-21T18:39:37.863Z,24.10
2023-03-21T18:42:07.522Z,24.10
2023-03-21T18:44:45.366Z,23.90
2023-03-21T18:47:15.868Z,23.60
2023-03-21T18:52:33.128Z,23.10
2023-03-21T18:55:01.333Z,23.30
2023-03-21T18:57:38.869Z,23.30
2023-03-21T19:00:13.036Z,23.40
2023-03-21T19:02:47.066Z,23.40
2023-03-21T19:05:17.943Z,23.50
2023-03-21T19:07:47.778Z,23.40
2023-03-21T19:10:20.017Z,23.70
2023-03-21T19:12:49.163Z,23.80
2023-03-21T19:15:19.559Z,23.80
2023-03-21T19:20:44.364Z,23.70
2023-03-21T19:23:12.639Z,23.30
2023-03-21T19:25:40.857Z,23.10
2023-03-21T19:28:09.732Z,23.30
2023-03-21T19:30:38.296Z,23.40
2023-03-21T19:33:08.378Z,23.60
2023-03-21T19:35:41.001Z,23.70
2023-03-21T19:38:09.401Z,23.40
2023-03-21T19:40:40.571Z,23.60
2023-03-21T19:43:31.220Z,23.80
2023-03-21T19:46:00.513Z,23.90
2023-03-21T19:48:30.158Z,24.10
2023-03-21T19:51:26.870Z,24.10
2023-03-21T19:53:51.758Z,24.20
2023-03-21T19:56:23.770Z,24.30
2023-03-21T19:58:55.678Z,24.20
2023-03-21T20:01:25.144Z,23.90
2023-03-21T20:03:57.256Z,23.90
2023-03-21T20:06:26.739Z,23.80
2023-03-21T20:09:41.383Z,23.90
2023-03-21T20:11:44.172Z,23.90
2023-03-21T20:14:12.397Z,23.90
2023-03-21T20:16:43.611Z,24.00
2023-03-21T20:19:18.117Z,24.00
2023-03-21T20:21:54.714Z,24.00
2023-03-21T20:24:26.035Z,24.00
2023-03-21T20:26:54.962Z,24.00
2023-03-21T20:30:08.257Z,24.10
2023-03-21T20:32:11.469Z,24.00
2023-03-21T20:34:41.228Z,24.10
2023-03-21T20:37:09.702Z,24.20
2023-03-21T20:39:42.142Z,24.20
2023-03-21T20:42:10.411Z,24.30
2023-03-21T20:44:58.425Z,24.30
2023-03-21T20:47:28.007Z,24.40
2023-03-21T20:49:58.412Z,24.30
2023-03-21T20:52:54.895Z,24.20
2023-03-21T20:55:16.845Z,23.50
2023-03-21T20:57:45.114Z,23.60
2023-03-21T21:00:17.650Z,23.80
2023-03-21T21:02:47.477Z,23.70
2023-03-21T21:05:29.953Z,23.60
2023-03-21T21:08:00.728Z,23.20
2023-03-21T21:10:29.623Z,23.30
2023-03-21T21:12:57.822Z,23.40
2023-03-21T21:15:26.319Z,23.30
2023-03-21T21:18:06.676Z,23.40
2023-03-21T21:20:38.398Z,23.50
2023-03-21T21:23:09.517Z,23.50
2023-03-21T21:25:38.034Z,23.70
2023-03-21T21:28:09.392Z,23.90
2023-03-21T21:30:41.189Z,24.00
2023-03-21T21:33:09.839Z,24.00
2023-03-21T21:35:39.541Z,23.70
2023-03-21T21:38:07.793Z,23.70
2023-03-21T21:40:36.263Z,23.80
2023-03-21T21:43:04.897Z,24.00
2023-03-21T21:45:33.494Z,24.00
2023-03-21T21:48:02.103Z,24.10
2023-03-21T21:50:30.348Z,23.70
2023-03-21T21:53:03.600Z,23.70
2023-03-21T21:55:32.141Z,23.70
2023-03-21T21:58:00.654Z,23.40
2023-03-21T22:00:31.676Z,23.30
2023-03-21T22:03:01.094Z,23.50
2023-03-21T22:05:29.629Z,23.60
2023-03-21T22:07:59.341Z,23.70
2023-03-21T22:10:28.474Z,23.70
2023-03-21T22:12:56.758Z,23.70
2023-03-21T22:15:25.110Z,23.80
2023-03-21T22:17:53.568Z,23.90
2023-03-21T22:20:22.556Z,23.70
2023-03-21T22:22:51.169Z,22.50
2023-03-21T22:25:20.936Z,22.20
2023-03-21T22:27:49.155Z,22.60
2023-03-21T22:30:18.618Z,23.00
2023-03-21T22:33:02.544Z,23.30
2023-03-21T22:35:34.751Z,23.50
2023-03-21T22:38:02.935Z,23.60
2023-03-21T22:40:32.503Z,23.40
2023-03-21T22:43:00.676Z,23.30
2023-03-21T22:45:28.980Z,23.40
2023-03-21T22:47:59.757Z,23.60
2023-03-21T22:50:28.602Z,23.70
2023-03-21T22:52:59.508Z,23.70
2023-03-21T22:55:27.695Z,23.70
2023-03-21T22:57:57.344Z,23.80
2023-03-21T23:00:26.586Z,23.80
2023-03-21T23:02:54.809Z,23.80
2023-03-21T23:05:23.045Z,23.90
2023-03-21T23:07:51.240Z,23.90
2023-03-21T23:10:19.996Z,23.80
2023-03-21T23:12:48.465Z,23.80
2023-03-21T23:15:20.481Z,23.30
2023-03-21T23:17:48.829Z,22.80
2023-03-21T23:20:17.006Z,22.20
2023-03-21T23:22:45.236Z,22.10
2023-03-21T23:25:13.466Z,22.50
2023-03-21T23:27:41.688Z,22.70
2023-03-21T23:30:10.473Z,22.90
2023-03-21T23:32:40.041Z,22.60
2023-03-21T23:35:09.493Z,22.00
2023-03-21T23:37:37.871Z,22.00
2023-03-21T23:40:07.229Z,22.30
2023-03-21T23:42:36.222Z,22.60
2023-03-21T23:45:04.752Z,22.90
2023-03-21T23:47:35.700Z,22.50
2023-03-21T23:50:07.709Z,22.20
2023-03-21T23:52:36.446Z,22.60
2023-03-21T23:55:04.991Z,22.80
2023-03-21T23:57:33.230Z,22.70
